Time;durP1;ratioP1;P1;durP2;ratioP2;P2;SDS_P1;SDS_P2;PMS_P1;PMS_P2;Temp;Humidity;BMP_temperature;BMP_pressure;BME280_temperature;BME280_humidity;BME280_pressure;Samples;Min_cycle;Max_cycle;Signal;HPM_P1;HPM_P2
2023/10/14 00:00:33;;;;;;;0.95;0.80;;;18.20;64.10;;;;;;6099628;23;20183;-87
2023/10/14 00:03:18;;;;;;;0.95;0.77;;;18.20;64.00;;;;;;6125552;23;20139;-85
2023/10/14 00:05:45;;;;;;;1.23;0.80;;;18.20;64.10;;;;;;6125423;23;20191;-84
2023/10/14 00:08:12;;;;;;;1.25;0.80;;;18.20;64.10;;;;;;6076146;23;20148;-84
2023/10/14 00:10:39;;;;;;;0.90;0.68;;;18.20;64.10;;;;;;6075818;23;20527;-87
2023/10/14 00:13:10;;;;;;;0.93;0.75;;;18.20;64.10;;;;;;6075988;23;20188;-86
2023/10/14 00:15:39;;;;;;;1.42;0.80;;;18.10;64.10;;;;;;6100927;23;20136;-88
2023/10/14 00:18:07;;;;;;;0.80;0.70;;;18.10;64.20;;;;;;6076220;23;20147;-85
2023/10/14 00:20:37;;;;;;;1.17;0.75;;;18.10;64.20;;;;;;6099940;23;20215;-86
2023/10/14 00:23:05;;;;;;;0.80;0.77;;;18.10;64.20;;;;;;6050888;23;20239;-88
2023/10/14 00:25:34;;;;;;;0.70;0.60;;;18.20;64.30;;;;;;6050719;23;20251;-86
2023/10/14 00:28:07;;;;;;;2.05;0.80;;;18.20;64.30;;;;;;6051259;23;20162;-87
2023/10/14 00:30:33;;;;;;;1.27;0.90;;;18.20;64.20;;;;;;6100976;23;20140;-87
2023/10/14 00:33:00;;;;;;;1.42;0.80;;;18.10;64.20;;;;;;6099628;23;20448;-84
2023/10/14 00:35:27;;;;;;;1.05;0.75;;;18.10;64.20;;;;;;6027235;23;20160;-87
2023/10/14 00:37:53;;;;;;;0.82;0.65;;;18.20;64.20;;;;;;6075665;23;20148;-87
2023/10/14 00:40:26;;;;;;;1.60;0.85;;;18.10;64.30;;;;;;6125540;23;20143;-85
2023/10/14 00:42:55;;;;;;;1.10;0.70;;;18.10;64.20;;;;;;6101146;23;20517;-84
2023/10/14 00:45:21;;;;;;;0.60;0.60;;;18.10;64.20;;;;;;6099795;23;20183;-86
2023/10/14 00:47:48;;;;;;;1.83;1.15;;;18.20;64.40;;;;;;6125505;23;20143;-87
2023/10/14 00:50:26;;;;;;;0.63;0.63;;;18.10;64.20;;;;;;6125344;23;20215;-85
2023/10/14 00:52:57;;;;;;;1.83;0.80;;;18.10;64.30;;;;;;6098442;23;20148;-85
2023/10/14 00:55:46;;;;;;;1.17;0.80;;;18.10;64.20;;;;;;6004468;23;20600;-84
2023/10/14 00:58:14;;;;;;;1.10;0.80;;;18.10;64.20;;;;;;6060397;23;20156;-87
2023/10/14 01:01:06;;;;;;;1.88;0.90;;;18.10;64.30;;;;;;6070134;23;20663;-85
2023/10/14 01:03:33;;;;;;;0.98;0.80;;;18.10;64.30;;;;;;6050271;23;20231;-89
2023/10/14 01:06:22;;;;;;;0.95;0.70;;;18.10;64.20;;;;;;6046879;23;20137;-86
2023/10/14 01:08:49;;;;;;;2.33;1.08;;;18.10;64.20;;;;;;6015086;23;20149;-84
2023/10/14 01:11:17;;;;;;;1.20;0.85;;;18.10;64.30;;;;;;6071248;23;20137;-85
2023/10/14 01:13:45;;;;;;;1.48;1.10;;;18.10;64.40;;;;;;6048796;23;20696;-87
2023/10/14 01:16:11;;;;;;;1.40;0.82;;;18.10;64.30;;;;;;6048670;23;20172;-86
2023/10/14 01:18:39;;;;;;;1.33;0.70;;;18.10;64.30;;;;;;6072352;23;20144;-87
2023/10/14 01:21:06;;;;;;;1.00;0.70;;;18.10;64.30;;;;;;6072026;23;20247;-84
2023/10/14 01:23:36;;;;;;;1.55;0.70;;;18.10;64.30;;;;;;6097659;23;20212;-86
2023/10/14 01:26:05;;;;;;;1.20;0.80;;;18.20;64.60;;;;;;6025008;23;20231;-88
2023/10/14 01:28:32;;;;;;;0.95;0.82;;;18.10;64.50;;;;;;6000178;23;20160;-86
2023/10/14 01:31:39;;;;;;;0.98;0.80;;;18.10;64.40;;;;;;6072194;23;20185;-85
2023/10/14 01:34:07;;;;;;;2.90;0.70;;;18.10;64.40;;;;;;6046771;23;20161;-86
2023/10/14 01:36:37;;;;;;;2.40;1.02;;;18.10;64.50;;;;;;6071735;23;20196;-85
2023/10/14 01:39:09;;;;;;;1.15;0.70;;;18.10;64.40;;;;;;6025993;23;20153;-87
2023/10/14 01:41:35;;;;;;;1.33;0.70;;;18.10;64.30;;;;;;6026000;23;20699;-88
2023/10/14 01:44:05;;;;;;;1.15;0.90;;;18.20;64.50;;;;;;6072212;23;20183;-88
2023/10/14 01:46:34;;;;;;;0.95;0.85;;;18.10;64.50;;;;;;6049904;23;20140;-86
2023/10/14 01:49:10;;;;;;;0.70;0.60;;;18.10;64.50;;;;;;6048236;23;20232;-87
2023/10/14 01:51:37;;;;;;;1.20;0.80;;;18.00;64.60;;;;;;6097375;23;20633;-86
2023/10/14 01:54:06;;;;;;;0.70;0.70;;;18.10;64.60;;;;;;6046939;23;20159;-85
2023/10/14 01:56:32;;;;;;;1.00;0.80;;;18.10;64.50;;;;;;6071901;23;20153;-89
2023/10/14 01:58:57;;;;;;;0.95;0.70;;;18.10;64.60;;;;;;6097018;23;20642;-84
2023/10/14 02:01:23;;;;;;;0.65;0.60;;;18.10;64.70;;;;;;6072389;23;20145;-88
2023/10/14 02:03:51;;;;;;;0.80;0.70;;;18.10;64.50;;;;;;6047957;23;20624;-86
2023/10/14 02:06:18;;;;;;;1.42;0.95;;;18.10;64.50;;;;;;6072087;23;20129;-85
2023/10/14 02:08:46;;;;;;;0.98;0.73;;;18.20;64.70;;;;;;6048377;23;20557;-85
2023/10/14 02:11:16;;;;;;;1.60;0.70;;;18.10;64.70;;;;;;6072021;23;20157;-86
2023/10/14 02:13:42;;;;;;;1.17;0.70;;;18.10;64.60;;;;;;5978820;23;20157;-84
2023/10/14 02:16:09;;;;;;;1.38;0.95;;;18.20;64.60;;;;;;6071794;23;20144;-88
2023/10/14 02:18:38;;;;;;;1.30;0.60;;;18.20;64.60;;;;;;6071589;23;20573;-87
2023/10/14 02:21:05;;;;;;;0.80;0.75;;;18.10;64.60;;;;;;6071470;23;20176;-87
2023/10/14 02:26:35;;;;;;;0.73;0.70;;;18.10;64.50;;;;;;6089612;23;20148;-86
2023/10/14 02:29:15;;;;;;;1.17;0.80;;;18.10;64.60;;;;;;6045604;23;20133;-88
2023/10/14 02:31:43;;;;;;;1.63;0.82;;;18.10;64.60;;;;;;6029671;23;20159;-86
2023/10/14 02:34:09;;;;;;;0.90;0.70;;;18.10;64.50;;;;;;6071944;23;20160;-86
2023/10/14 02:36:52;;;;;;;1.67;0.90;;;18.10;64.50;;;;;;6071727;23;20133;-85
2023/10/14 02:39:25;;;;;;;1.35;0.85;;;18.10;64.60;;;;;;6096995;23;20140;-84
2023/10/14 02:44:43;;;;;;;1.73;0.60;;;18.10;64.60;;;;;;6010237;23;20619;-85
2023/10/14 02:47:10;;;;;;;1.38;0.98;;;18.10;64.70;;;;;;6049213;23;20152;-86
2023/10/14 02:49:38;;;;;;;0.80;0.70;;;18.10;64.80;;;;;;5999557;23;20157;-87
2023/10/14 02:52:10;;;;;;;1.13;0.80;;;18.10;64.90;;;;;;6047915;23;20159;-87
2023/10/14 02:54:38;;;;;;;0.80;0.60;;;18.10;64.90;;;;;;6095693;23;20228;-85
2023/10/14 02:57:12;;;;;;;0.80;0.60;;;18.10;64.70;;;;;;6042403;23;20915;-86
2023/10/14 02:59:43;;;;;;;1.05;0.82;;;18.10;64.80;;;;;;6086926;23;20199;-84
2023/10/14 03:02:14;;;;;;;0.73;0.70;;;18.10;64.80;;;;;;6076937;23;20223;-87
2023/10/14 03:07:33;;;;;;;1.20;0.75;;;18.10;64.70;;;;;;6084693;23;20182;-87
2023/10/14 03:12:49;;;;;;;0.50;0.50;;;18.10;64.70;;;;;;6103354;23;20649;-85
2023/10/14 03:15:19;;;;;;;1.40;1.00;;;18.10;64.70;;;;;;6023513;23;20473;-85
2023/10/14 03:17:56;;;;;;;0.70;0.60;;;18.10;64.90;;;;;;6100356;23;20222;-85
2023/10/14 03:20:34;;;;;;;1.38;0.73;;;18.00;64.90;;;;;;6005403;23;20156;-86
2023/10/14 03:23:23;;;;;;;1.00;0.63;;;18.00;64.90;;;;;;6102325;23;20155;-84
2023/10/14 03:25:53;;;;;;;1.75;0.93;;;18.10;64.90;;;;;;6035735;23;20179;-86
2023/10/14 03:28:27;;;;;;;0.70;0.70;;;18.00;64.90;;;;;;6028298;23;20214;-84
2023/10/14 03:30:58;;;;;;;1.20;0.88;;;18.00;64.90;;;;;;6006149;23;20203;-86
2023/10/14 03:33:27;;;;;;;1.25;0.70;;;18.00;65.00;;;;;;6028025;23;20152;-87
2023/10/14 03:36:05;;;;;;;1.00;0.70;;;18.10;65.00;;;;;;6076669;23;20147;-84
2023/10/14 03:38:39;;;;;;;0.98;0.68;;;18.00;65.00;;;;;;6034411;23;20151;-84
2023/10/14 03:41:11;;;;;;;1.27;0.90;;;18.00;64.90;;;;;;6076956;23;20192;-85
2023/10/14 03:43:48;;;;;;;1.35;0.70;;;18.10;64.90;;;;;;6099594;23;20231;-85
2023/10/14 03:46:23;;;;;;;1.38;0.80;;;18.10;64.90;;;;;;6125792;23;20139;-86
2023/10/14 03:48:54;;;;;;;1.13;0.82;;;18.00;64.80;;;;;;6031358;23;20151;-85
2023/10/14 03:51:24;;;;;;;0.93;0.60;;;18.10;64.90;;;;;;6030931;23;20158;-84
2023/10/14 03:53:54;;;;;;;1.65;0.80;;;18.10;64.90;;;;;;6099897;23;20148;-87
2023/10/14 03:56:21;;;;;;;2.38;0.80;;;18.10;64.90;;;;;;6099942;23;20133;-86
2023/10/14 03:58:49;;;;;;;1.52;0.80;;;18.10;64.80;;;;;;6099637;23;20191;-86
2023/10/14 04:01:22;;;;;;;1.40;0.80;;;18.00;64.70;;;;;;6100109;23;20627;-83
2023/10/14 04:03:52;;;;;;;1.45;0.88;;;18.10;64.70;;;;;;6090519;23;20159;-84
2023/10/14 04:06:19;;;;;;;0.77;0.60;;;18.00;64.90;;;;;;6099696;23;20132;-83
2023/10/14 04:08:47;;;;;;;0.70;0.65;;;18.10;64.90;;;;;;6075915;23;20156;-84
2023/10/14 04:11:25;;;;;;;1.08;0.70;;;18.10;64.80;;;;;;6099961;23;20143;-85
2023/10/14 04:14:02;;;;;;;1.73;0.93;;;18.10;64.90;;;;;;6100950;23;20139;-84
2023/10/14 04:16:36;;;;;;;1.27;0.70;;;18.10;64.80;;;;;;6077638;23;20155;-84
2023/10/14 04:19:17;;;;;;;0.93;0.60;;;18.10;64.90;;;;;;6099676;23;20202;-84
2023/10/14 04:21:52;;;;;;;0.75;0.60;;;18.10;64.90;;;;;;6103341;23;20143;-86
2023/10/14 04:24:26;;;;;;;0.82;0.75;;;18.10;64.90;;;;;;6077527;23;20267;-86
2023/10/14 04:27:11;;;;;;;0.75;0.60;;;18.10;64.90;;;;;;6077331;23;20584;-86
2023/10/14 04:29:39;;;;;;;0.63;0.63;;;18.10;64.90;;;;;;6104057;23;20565;-83
2023/10/14 04:34:43;;;;;;;0.65;0.57;;;18.10;64.90;;;;;;6125399;23;20140;-84
2023/10/14 04:37:09;;;;;;;1.00;0.68;;;18.00;64.90;;;;;;6100041;23;20132;-83
2023/10/14 04:39:42;;;;;;;1.38;0.82;;;18.00;65.00;;;;;;6099556;23;20132;-84
2023/10/14 04:42:35;;;;;;;0.70;0.70;;;18.00;64.90;;;;;;6125499;23;20136;-85
2023/10/14 04:44:55;;;;;;;1.10;0.77;;;18.10;65.00;;;;;;6104182;23;20180;-83
2023/10/14 04:47:36;;;;;;;1.35;0.90;;;18.00;64.90;;;;;;6127364;23;20450;-84
2023/10/14 04:50:10;;;;;;;2.45;1.17;;;18.00;65.00;;;;;;6080426;23;20195;-85
2023/10/14 04:52:38;;;;;;;1.33;0.88;;;18.00;65.00;;;;;;6077473;23;20152;-83
2023/10/14 04:55:18;;;;;;;1.35;0.65;;;18.00;65.00;;;;;;6101171;23;20183;-85
2023/10/14 04:57:50;;;;;;;1.05;0.88;;;18.00;65.00;;;;;;6104490;23;20908;-83
2023/10/14 05:00:19;;;;;;;0.90;0.60;;;18.00;65.00;;;;;;6078338;23;20266;-83
2023/10/14 05:02:45;;;;;;;1.10;0.80;;;18.00;64.90;;;;;;6127244;23;20132;-85
2023/10/14 05:05:11;;;;;;;1.17;0.73;;;18.00;65.00;;;;;;6100882;23;20214;-83
2023/10/14 05:07:37;;;;;;;1.30;0.70;;;18.10;65.10;;;;;;6101232;23;20156;-84
2023/10/14 05:10:08;;;;;;;1.08;0.82;;;18.00;65.00;;;;;;6101315;23;20136;-85
2023/10/14 05:12:40;;;;;;;0.77;0.70;;;18.00;64.90;;;;;;6077728;23;20156;-84
2023/10/14 05:15:19;;;;;;;1.02;0.70;;;18.00;65.00;;;;;;6077170;23;20156;-84
2023/10/14 05:17:50;;;;;;;0.80;0.68;;;18.00;65.10;;;;;;6079575;23;20622;-84
2023/10/14 05:20:19;;;;;;;0.70;0.70;;;18.00;65.00;;;;;;6077191;23;20163;-84
2023/10/14 05:22:47;;;;;;;0.60;0.57;;;18.00;65.00;;;;;;6101766;23;20218;-83
2023/10/14 05:25:16;;;;;;;1.13;0.88;;;18.00;64.90;;;;;;6106296;23;20209;-86
2023/10/14 05:27:46;;;;;;;1.15;0.73;;;17.90;64.90;;;;;;6156748;23;20132;-85
2023/10/14 05:30:15;;;;;;;0.93;0.70;;;18.10;65.10;;;;;;6130181;23;20230;-84
2023/10/14 05:32:43;;;;;;;1.38;0.60;;;18.00;64.90;;;;;;6106319;23;20150;-84
2023/10/14 05:35:10;;;;;;;1.23;0.80;;;18.00;65.00;;;;;;6130865;23;20131;-84
2023/10/14 05:37:41;;;;;;;0.60;0.55;;;18.00;65.00;;;;;;6130368;23;20572;-84
2023/10/14 05:40:13;;;;;;;0.80;0.60;;;18.00;65.00;;;;;;6131359;23;20466;-84
2023/10/14 05:42:43;;;;;;;0.93;0.70;;;18.00;64.90;;;;;;6131577;23;20571;-85
2023/10/14 05:45:11;;;;;;;1.05;0.70;;;18.00;64.90;;;;;;6106070;23;20206;-83
2023/10/14 05:47:37;;;;;;;1.27;0.70;;;18.00;64.90;;;;;;6106321;23;20526;-84
2023/10/14 05:50:14;;;;;;;0.98;0.68;;;18.00;64.90;;;;;;6156191;23;20142;-84
2023/10/14 05:52:41;;;;;;;0.80;0.70;;;17.90;64.80;;;;;;6129055;23;20571;-85
2023/10/14 05:55:09;;;;;;;1.60;0.80;;;18.00;64.80;;;;;;6105693;23;20234;-82
2023/10/14 05:57:39;;;;;;;1.40;0.60;;;18.00;65.00;;;;;;6105588;23;20163;-84
2023/10/14 06:00:20;;;;;;;1.02;0.70;;;17.90;64.90;;;;;;6130766;23;20198;-84
2023/10/14 06:02:48;;;;;;;1.00;0.75;;;18.00;65.00;;;;;;6133383;23;20593;-82
2023/10/14 06:05:16;;;;;;;1.25;0.80;;;18.10;65.10;;;;;;6130109;23;20163;-83
2023/10/14 06:07:46;;;;;;;1.45;0.70;;;18.00;65.00;;;;;;6129783;23;20174;-85
2023/10/14 06:10:14;;;;;;;0.90;0.70;;;18.00;65.00;;;;;;6106458;23;20143;-86
2023/10/14 06:12:44;;;;;;;1.02;0.70;;;18.00;64.90;;;;;;6129906;23;20151;-84
2023/10/14 06:15:10;;;;;;;0.80;0.60;;;18.00;65.00;;;;;;6106198;23;20152;-83
2023/10/14 06:17:38;;;;;;;1.02;0.80;;;18.00;64.90;;;;;;6129768;23;20140;-85
2023/10/14 06:20:07;;;;;;;1.38;0.80;;;18.00;65.10;;;;;;6105938;23;20175;-83
2023/10/14 06:22:33;;;;;;;1.58;0.90;;;18.00;64.90;;;;;;6105444;23;20151;-84
2023/10/14 06:25:00;;;;;;;1.20;0.70;;;18.00;64.90;;;;;;6155805;23;20174;-84
2023/10/14 06:27:26;;;;;;;1.23;0.90;;;18.10;64.90;;;;;;6129660;23;20148;-84
2023/10/14 06:29:55;;;;;;;0.98;0.60;;;18.00;65.00;;;;;;6104922;23;20587;-85
2023/10/14 06:32:20;;;;;;;0.70;0.60;;;18.00;64.80;;;;;;6130328;23;20128;-84
2023/10/14 06:34:49;;;;;;;1.52;0.70;;;18.00;64.80;;;;;;6155623;23;20143;-84
2023/10/14 06:37:14;;;;;;;1.15;0.85;;;18.00;64.90;;;;;;6106067;23;20482;-84
2023/10/14 06:39:41;;;;;;;1.52;0.70;;;18.00;64.90;;;;;;6129550;23;20230;-83
2023/10/14 06:42:07;;;;;;;1.55;0.80;;;18.00;64.70;;;;;;6155460;23;20464;-83
2023/10/14 06:44:33;;;;;;;0.82;0.82;;;18.10;63.90;;;;;;6129697;23;20163;-85
2023/10/14 06:46:59;;;;;;;0.90;0.68;;;18.20;63.80;;;;;;6129627;23;20143;-85
2023/10/14 06:49:32;;;;;;;1.60;0.60;;;18.20;63.30;;;;;;6129744;23;20567;-82
2023/10/14 06:52:01;;;;;;;1.15;0.68;;;18.20;63.30;;;;;;6083665;23;20242;-84
2023/10/14 06:54:30;;;;;;;2.00;0.70;;;18.20;63.20;;;;;;6078849;23;20159;-83
2023/10/14 06:56:56;;;;;;;1.80;0.75;;;18.20;63.00;;;;;;6081767;23;20238;-86
2023/10/14 06:59:22;;;;;;;1.38;0.60;;;18.30;62.90;;;;;;6124524;23;20235;-85
2023/10/14 07:01:48;;;;;;;0.65;0.60;;;18.30;62.60;;;;;;6124537;23;20532;-82
2023/10/14 07:04:16;;;;;;;1.33;0.93;;;18.20;62.40;;;;;;6126182;23;20170;-84
2023/10/14 07:06:47;;;;;;;1.85;0.65;;;18.30;62.70;;;;;;6100151;23;20210;-84
2023/10/14 07:09:18;;;;;;;1.65;0.63;;;18.30;62.90;;;;;;6124146;23;20154;-83
2023/10/14 07:11:46;;;;;;;0.60;0.50;;;18.30;62.60;;;;;;6124682;23;20162;-86
2023/10/14 07:14:12;;;;;;;1.17;0.80;;;18.30;62.40;;;;;;6098964;23;20160;-84
2023/10/14 07:16:38;;;;;;;1.33;0.70;;;18.30;62.40;;;;;;6124481;23;20552;-84
2023/10/14 07:19:03;;;;;;;0.85;0.80;;;18.30;62.20;;;;;;6124464;23;20140;-82
2023/10/14 07:21:29;;;;;;;0.90;0.70;;;18.30;62.00;;;;;;6124339;23;20230;-84
2023/10/14 07:23:58;;;;;;;1.30;0.70;;;18.30;62.10;;;;;;6099966;23;20206;-83
2023/10/14 07:26:29;;;;;;;1.88;0.70;;;18.30;62.10;;;;;;6100510;23;20152;-84
2023/10/14 07:28:56;;;;;;;1.05;0.70;;;18.30;62.40;;;;;;6124217;23;20128;-85
2023/10/14 07:31:23;;;;;;;0.68;0.60;;;18.30;62.20;;;;;;6124444;23;20140;-84
2023/10/14 07:33:49;;;;;;;0.90;0.63;;;18.30;62.30;;;;;;6100045;23;20152;-85
2023/10/14 07:36:15;;;;;;;1.00;0.60;;;18.30;62.10;;;;;;6100023;23;20162;-85
2023/10/14 07:38:43;;;;;;;1.52;0.70;;;18.30;61.90;;;;;;6124698;23;20129;-82
2023/10/14 07:41:10;;;;;;;0.95;0.55;;;18.40;61.80;;;;;;6100436;23;20156;-82
2023/10/14 07:43:36;;;;;;;1.17;0.70;;;18.40;61.50;;;;;;6125892;23;20135;-85
2023/10/14 07:46:03;;;;;;;2.30;0.70;;;18.40;61.50;;;;;;6100023;23;20175;-85
2023/10/14 07:48:28;;;;;;;1.25;0.77;;;18.40;61.60;;;;;;6124181;23;20191;-83
2023/10/14 07:50:56;;;;;;;1.02;0.60;;;18.40;61.60;;;;;;6100333;23;20152;-83
2023/10/14 07:53:23;;;;;;;1.48;0.60;;;18.40;61.60;;;;;;6123392;23;20143;-84
2023/10/14 07:55:49;;;;;;;1.38;0.70;;;18.40;61.10;;;;;;6100114;23;20156;-84
2023/10/14 07:58:16;;;;;;;1.92;0.70;;;18.40;60.90;;;;;;6124173;23;20136;-83
2023/10/14 08:00:52;;;;;;;1.50;0.63;;;18.40;61.20;;;;;;6153562;23;20217;-84
2023/10/14 08:03:22;;;;;;;1.67;0.70;;;18.40;61.30;;;;;;6107355;23;20205;-86
2023/10/14 08:05:51;;;;;;;1.33;0.80;;;18.40;61.80;;;;;;6107301;23;20175;-83
2023/10/14 08:08:17;;;;;;;1.30;0.82;;;18.40;61.90;;;;;;6132475;23;20136;-84
2023/10/14 08:10:43;;;;;;;1.73;0.50;;;18.30;61.90;;;;;;6131106;23;20594;-83
2023/10/14 08:13:10;;;;;;;1.38;0.70;;;18.30;61.90;;;;;;6107868;23;20166;-84
2023/10/14 08:15:36;;;;;;;1.48;0.70;;;18.30;61.90;;;;;;6131201;23;20572;-83
2023/10/14 08:18:04;;;;;;;1.75;0.80;;;18.30;61.60;;;;;;6108513;23;20154;-84
2023/10/14 08:20:31;;;;;;;2.15;0.80;;;18.40;61.60;;;;;;6132418;23;20618;-82
2023/10/14 08:22:57;;;;;;;0.73;0.50;;;18.30;61.70;;;;;;6131902;23;20152;-84
2023/10/14 08:25:25;;;;;;;1.10;0.75;;;18.40;61.80;;;;;;6157653;23;20254;-87
2023/10/14 08:27:52;;;;;;;1.13;0.73;;;18.40;61.60;;;;;;6161262;23;20607;-82
2023/10/14 08:30:17;;;;;;;2.17;0.63;;;18.40;61.40;;;;;;6133720;23;20227;-83
2023/10/14 08:32:43;;;;;;;1.17;0.70;;;18.40;61.10;;;;;;6108564;23;20154;-83
2023/10/14 08:35:18;;;;;;;2.20;0.85;;;18.40;61.10;;;;;;6134059;23;20171;-85
2023/10/14 08:37:47;;;;;;;1.38;0.70;;;18.40;61.00;;;;;;6109870;23;20153;-84
2023/10/14 08:40:16;;;;;;;2.20;0.70;;;18.50;60.90;;;;;;6132773;23;20174;-84
2023/10/14 08:42:49;;;;;;;1.30;0.70;;;18.50;60.90;;;;;;6109691;23;20158;-84
2023/10/14 08:45:20;;;;;;;1.88;0.80;;;18.50;60.70;;;;;;6134136;23;20170;-83
2023/10/14 08:47:50;;;;;;;2.65;0.82;;;18.50;60.80;;;;;;6135023;23;20140;-83
2023/10/14 08:50:18;;;;;;;2.83;0.70;;;18.40;60.80;;;;;;6111116;23;20151;-86
2023/10/14 08:52:45;;;;;;;3.20;0.90;;;18.50;60.70;;;;;;6132459;23;20159;-83
2023/10/14 08:55:14;;;;;;;3.55;0.88;;;18.50;60.70;;;;;;6107894;23;20186;-82
2023/10/14 08:57:41;;;;;;;1.23;0.70;;;18.50;60.30;;;;;;6108012;23;20230;-82
2023/10/14 09:00:12;;;;;;;2.95;0.82;;;18.50;60.50;;;;;;6127034;23;20535;-86
2023/10/14 09:02:39;;;;;;;1.92;0.70;;;18.50;60.80;;;;;;6129799;23;20136;-82
2023/10/14 09:05:04;;;;;;;6.10;1.00;;;18.50;60.80;;;;;;6129372;23;20215;-86
2023/10/14 09:07:32;;;;;;;2.08;0.85;;;18.50;60.80;;;;;;6127272;23;20133;-84
2023/10/14 09:09:58;;;;;;;4.78;0.93;;;18.50;60.90;;;;;;6102669;23;20148;-86
2023/10/14 09:12:24;;;;;;;3.17;0.82;;;18.50;60.80;;;;;;6101990;23;20210;-83
2023/10/14 09:14:50;;;;;;;3.92;0.82;;;18.50;60.90;;;;;;6128316;23;20560;-84
2023/10/14 09:17:16;;;;;;;5.53;0.90;;;18.60;60.80;;;;;;6124265;23;20150;-86
2023/10/14 09:19:47;;;;;;;3.83;0.93;;;18.60;60.60;;;;;;6126150;23;20176;-85
2023/10/14 09:22:22;;;;;;;3.90;0.65;;;18.50;60.40;;;;;;6127348;23;20133;-87
2023/10/14 09:24:50;;;;;;;3.08;0.82;;;18.50;60.40;;;;;;6127013;23;20168;-86
2023/10/14 09:27:17;;;;;;;2.78;0.60;;;18.50;60.50;;;;;;6125463;23;20163;-85
2023/10/14 09:29:43;;;;;;;5.97;0.90;;;18.50;60.50;;;;;;6125081;23;20227;-84
2023/10/14 09:32:09;;;;;;;3.22;0.77;;;18.50;60.30;;;;;;6100548;23;20148;-85
2023/10/14 09:34:35;;;;;;;4.10;0.88;;;18.50;60.30;;;;;;6101120;23;20183;-84
2023/10/14 09:37:10;;;;;;;2.80;0.65;;;18.50;60.30;;;;;;6101211;23;20148;-84
2023/10/14 09:39:39;;;;;;;3.78;1.00;;;18.50;59.80;;;;;;6102366;23;20156;-85
2023/10/14 09:42:06;;;;;;;1.90;0.70;;;18.50;59.90;;;;;;6100935;23;20148;-84
2023/10/14 09:44:32;;;;;;;1.73;0.65;;;18.50;60.00;;;;;;6100902;23;20294;-85
2023/10/14 09:46:58;;;;;;;4.15;0.88;;;18.60;59.90;;;;;;6125439;23;20643;-85
2023/10/14 09:49:24;;;;;;;3.70;0.70;;;18.60;60.00;;;;;;6127519;23;20215;-86
2023/10/14 09:51:53;;;;;;;1.75;0.82;;;18.60;59.90;;;;;;6125147;23;20604;-86
2023/10/14 09:54:21;;;;;;;4.03;1.10;;;18.60;59.80;;;;;;6124246;23;20136;-84
2023/10/14 09:56:47;;;;;;;2.95;0.77;;;18.60;59.80;;;;;;6102160;23;20231;-84
2023/10/14 09:59:13;;;;;;;3.67;0.90;;;18.60;59.80;;;;;;6101973;23;20650;-85
2023/10/14 10:01:39;;;;;;;6.97;1.00;;;18.60;59.70;;;;;;6126195;23;20267;-85
2023/10/14 10:04:08;;;;;;;3.35;0.90;;;18.50;59.60;;;;;;6126156;23;20171;-84
2023/10/14 10:06:52;;;;;;;4.05;0.80;;;18.60;59.70;;;;;;6124746;23;20573;-85
2023/10/14 10:09:49;;;;;;;1.35;0.70;;;18.60;59.60;;;;;;6125579;23;20175;-85
2023/10/14 10:12:16;;;;;;;4.82;0.82;;;18.60;59.70;;;;;;6126507;23;20136;-84
2023/10/14 10:14:42;;;;;;;4.90;0.90;;;18.60;59.60;;;;;;6101943;23;20258;-85
2023/10/14 10:17:11;;;;;;;2.63;0.82;;;18.60;59.50;;;;;;6127187;23;20652;-86
2023/10/14 10:20:00;;;;;;;2.60;0.65;;;18.60;59.40;;;;;;6100922;23;20160;-85
2023/10/14 10:22:39;;;;;;;3.35;0.80;;;18.50;59.30;;;;;;6099681;23;20156;-84
2023/10/14 10:25:05;;;;;;;3.00;0.98;;;18.60;59.30;;;;;;6125407;23;20219;-83
2023/10/14 10:27:31;;;;;;;1.98;0.60;;;18.60;59.10;;;;;;6125341;23;20889;-85
2023/10/14 10:29:56;;;;;;;1.20;0.60;;;18.60;59.10;;;;;;6101094;23;20152;-84
2023/10/14 10:32:23;;;;;;;4.82;1.10;;;18.60;59.10;;;;;;6124616;23;20533;-85
2023/10/14 10:35:10;;;;;;;3.92;0.73;;;18.60;58.80;;;;;;6124403;23;20144;-83
2023/10/14 10:37:37;;;;;;;5.72;1.00;;;18.60;58.80;;;;;;6125335;23;20583;-83
2023/10/14 10:40:10;;;;;;;1.65;0.80;;;18.60;58.60;;;;;;6126203;23;20143;-83
2023/10/14 10:42:37;;;;;;;1.67;0.73;;;18.60;58.60;;;;;;6103236;23;20160;-85
2023/10/14 10:45:10;;;;;;;4.70;1.10;;;18.60;58.40;;;;;;6126523;23;20477;-86
2023/10/14 10:47:54;;;;;;;2.40;0.90;;;18.60;58.20;;;;;;6129069;23;20160;-83
2023/10/14 10:50:22;;;;;;;1.60;0.90;;;18.70;58.30;;;;;;6128435;23;20178;-84
2023/10/14 10:53:13;;;;;;;3.42;0.80;;;18.60;58.00;;;;;;6102881;23;20606;-83
2023/10/14 10:55:44;;;;;;;2.13;0.73;;;18.70;57.80;;;;;;6057740;23;20658;-85
2023/10/14 10:58:11;;;;;;;2.53;0.80;;;18.70;58.00;;;;;;6128459;23;20508;-84
2023/10/14 11:00:38;;;;;;;3.47;0.70;;;18.60;57.70;;;;;;6127032;23;20296;-84
2023/10/14 11:03:04;;;;;;;2.47;0.93;;;18.70;57.60;;;;;;6103221;23;20218;-83
2023/10/14 11:05:33;;;;;;;1.80;0.70;;;18.60;57.60;;;;;;6126013;23;20242;-85
2023/10/14 11:08:01;;;;;;;1.65;0.60;;;18.70;57.50;;;;;;6127521;23;20330;-85
2023/10/14 11:10:29;;;;;;;1.58;0.73;;;18.70;57.30;;;;;;6127925;23;20139;-84
2023/10/14 11:12:59;;;;;;;1.55;0.70;;;18.70;57.30;;;;;;6127713;23;20146;-85
2023/10/14 11:15:26;;;;;;;5.57;1.05;;;18.60;56.90;;;;;;6102546;23;20155;-86
2023/10/14 11:17:53;;;;;;;3.50;0.90;;;18.70;56.90;;;;;;6127882;23;20151;-85
2023/10/14 11:20:20;;;;;;;2.53;0.70;;;18.70;56.70;;;;;;6129139;23;20136;-85
2023/10/14 11:22:45;;;;;;;2.03;0.80;;;18.70;56.50;;;;;;6103222;23;20155;-83
2023/10/14 11:25:18;;;;;;;1.17;0.60;;;18.70;56.30;;;;;;6126622;23;20499;-83
2023/10/14 11:27:45;;;;;;;2.92;0.65;;;18.70;56.30;;;;;;6100766;23;20160;-84
2023/10/14 11:30:14;;;;;;;2.58;0.63;;;18.70;56.30;;;;;;6126150;23;20171;-83
2023/10/14 11:32:48;;;;;;;0.95;0.63;;;18.70;56.10;;;;;;6126032;23;20137;-84
2023/10/14 11:35:16;;;;;;;1.63;0.93;;;18.60;56.00;;;;;;6125573;23;20191;-86
2023/10/14 11:37:42;;;;;;;0.82;0.50;;;18.70;56.00;;;;;;6125812;23;20579;-86
2023/10/14 11:40:13;;;;;;;2.63;0.60;;;18.70;55.90;;;;;;6124631;23;20149;-83
2023/10/14 11:42:40;;;;;;;1.70;0.65;;;18.70;55.90;;;;;;6125344;23;20136;-87
2023/10/14 11:45:07;;;;;;;2.90;0.57;;;18.70;55.90;;;;;;6125168;23;20176;-82
2023/10/14 11:47:36;;;;;;;2.15;1.02;;;18.60;55.80;;;;;;6124940;23;20444;-84
2023/10/14 11:50:11;;;;;;;2.45;0.80;;;18.60;55.80;;;;;;6101025;23;20559;-84
2023/10/14 11:52:39;;;;;;;2.35;0.80;;;18.70;55.60;;;;;;6101271;23;20150;-83
2023/10/14 11:55:05;;;;;;;5.05;0.90;;;18.70;55.50;;;;;;6099729;23;20603;-84
2023/10/14 11:57:31;;;;;;;1.58;0.60;;;18.70;55.50;;;;;;6125941;23;20137;-84
2023/10/14 12:00:01;;;;;;;4.97;0.90;;;18.70;55.40;;;;;;6124031;23;20188;-84
2023/10/14 12:02:29;;;;;;;1.17;0.52;;;18.60;55.50;;;;;;6075149;23;20164;-84
2023/10/14 12:04:55;;;;;;;4.07;1.08;;;18.60;55.20;;;;;;6074814;23;20180;-85
2023/10/14 12:07:21;;;;;;;1.85;0.50;;;18.70;55.20;;;;;;6075402;23;20144;-85
2023/10/14 12:09:47;;;;;;;2.15;0.65;;;18.60;55.20;;;;;;6099739;23;20132;-86
2023/10/14 12:12:15;;;;;;;0.82;0.50;;;18.70;55.10;;;;;;6100024;23;20207;-86
2023/10/14 12:14:41;;;;;;;2.53;0.57;;;18.60;55.00;;;;;;6027240;23;20163;-85
2023/10/14 12:17:08;;;;;;;4.18;0.70;;;18.70;55.00;;;;;;6099646;23;20144;-84
2023/10/14 12:19:34;;;;;;;2.92;0.63;;;18.60;55.00;;;;;;6125661;23;20468;-84
2023/10/14 12:22:00;;;;;;;1.80;0.70;;;18.70;55.10;;;;;;6099711;23;20136;-84
2023/10/14 12:24:32;;;;;;;4.00;0.77;;;18.70;55.20;;;;;;6099381;23;20171;-84
2023/10/14 12:26:58;;;;;;;3.45;0.80;;;18.60;55.40;;;;;;6005417;23;20156;-86
2023/10/14 12:29:25;;;;;;;1.38;0.70;;;18.60;55.40;;;;;;6099574;23;20148;-84
2023/10/14 12:31:51;;;;;;;1.23;0.57;;;18.60;55.50;;;;;;6125763;23;20135;-84
2023/10/14 12:34:16;;;;;;;2.53;0.70;;;18.60;55.70;;;;;;6099705;23;20141;-83
2023/10/14 12:36:45;;;;;;;3.55;0.60;;;18.50;55.80;;;;;;6100076;23;20227;-84
2023/10/14 12:39:33;;;;;;;3.08;0.77;;;18.40;55.80;;;;;;6077731;23;20210;-85
2023/10/14 12:42:02;;;;;;;4.15;0.60;;;18.50;55.90;;;;;;6104384;23;20600;-82
2023/10/14 12:44:28;;;;;;;1.65;0.60;;;18.50;55.90;;;;;;6126059;23;20167;-86
2023/10/14 12:46:53;;;;;;;1.58;0.75;;;18.50;55.90;;;;;;6076706;23;20144;-84
2023/10/14 12:49:19;;;;;;;1.40;0.50;;;18.60;55.90;;;;;;6100653;23;20211;-83
2023/10/14 12:51:46;;;;;;;2.03;0.50;;;18.50;55.80;;;;;;6099567;23;20565;-86
2023/10/14 12:54:20;;;;;;;1.50;0.50;;;18.60;55.90;;;;;;6025357;23;20190;-84
2023/10/14 12:56:46;;;;;;;1.38;0.57;;;18.50;55.80;;;;;;6099857;23;20227;-86
2023/10/14 12:59:12;;;;;;;2.35;0.50;;;18.60;56.00;;;;;;6067446;23;20196;-84
2023/10/14 13:01:46;;;;;;;1.58;0.52;;;18.60;55.80;;;;;;6024168;23;20164;-84
2023/10/14 13:04:16;;;;;;;0.85;0.55;;;18.50;56.00;;;;;;6096450;23;20597;-84
2023/10/14 13:06:44;;;;;;;0.80;0.50;;;18.50;56.10;;;;;;6072311;23;20137;-86
2023/10/14 13:09:11;;;;;;;0.98;0.45;;;18.60;56.20;;;;;;6072777;23;20133;-86
2023/10/14 13:11:40;;;;;;;3.03;0.70;;;18.60;56.20;;;;;;6073163;23;20208;-86
2023/10/14 13:14:05;;;;;;;4.68;0.85;;;18.60;56.20;;;;;;6073792;23;20208;-85